Time;durP1;ratioP1;P1;durP2;ratioP2;P2;SDS_P1;SDS_P2;PMS_P1;PMS_P2;Temp;Humidity;BMP_temperature;BMP_pressure;BME280_temperature;BME280_humidity;BME280_pressure;Samples;Min_cycle;Max_cycle;Signal;HPM_P1;HPM_P2
2022/07/02 00:04:29;;;;;;;55.13;51.63;;;;;;;14.89;100.00;101967.32;1995660;71;32897;-74
2022/07/02 00:10:15;;;;;;;53.67;50.10;;;;;;;14.76;100.00;101958.73;2015132;71;32813;-73
2022/07/02 00:16:00;;;;;;;55.40;51.73;;;;;;;14.66;100.00;101968.00;2013232;71;32833;-75
2022/07/02 00:21:45;;;;;;;55.57;51.97;;;;;;;14.75;100.00;101964.05;2006642;70;32750;-74
2022/07/02 00:27:31;;;;;;;54.00;50.40;;;;;;;14.59;100.00;101954.30;2008405;70;32762;-74
2022/07/02 00:33:17;;;;;;;56.30;52.50;;;;;;;14.56;100.00;101947.05;2013415;71;33025;-73
2022/07/02 00:39:02;;;;;;;55.10;51.33;;;;;;;14.54;100.00;101949.31;2018865;71;32797;-75
2022/07/02 00:44:50;;;;;;;54.43;50.83;;;;;;;14.51;100.00;101945.66;2000293;71;32884;-75
2022/07/02 00:50:36;;;;;;;54.97;51.07;;;;;;;14.36;100.00;101949.36;1995485;71;33256;-75
2022/07/02 00:56:21;;;;;;;56.40;52.53;;;;;;;14.35;100.00;101946.28;2006103;71;32786;-75
2022/07/02 01:02:07;;;;;;;53.83;49.97;;;;;;;14.24;100.00;101945.17;2002494;71;33027;-75
2022/07/02 01:14:03;;;;;;;54.73;51.03;;;;;;;14.19;100.00;101935.40;2000674;71;32838;-75
2022/07/02 01:19:47;;;;;;;53.40;49.70;;;;;;;14.15;100.00;101918.37;2006639;71;32759;-74
2022/07/02 01:25:33;;;;;;;52.83;49.07;;;;;;;14.12;100.00;101929.53;2017002;71;32898;-74
2022/07/02 01:31:19;;;;;;;52.30;48.70;;;;;;;14.07;100.00;101928.73;2004713;71;32757;-75
2022/07/02 01:37:03;;;;;;;52.23;48.93;;;;;;;14.12;100.00;101933.72;2017098;71;33423;-75
2022/07/02 01:42:48;;;;;;;51.60;47.90;;;;;;;14.05;100.00;101935.14;1978126;72;33496;-74
2022/07/02 01:48:34;;;;;;;51.63;47.83;;;;;;;14.01;100.00;101934.03;2013489;70;33365;-75
2022/07/02 01:54:18;;;;;;;51.00;47.50;;;;;;;14.00;100.00;101935.14;2001131;71;33322;-76
2022/07/02 02:00:03;;;;;;;51.73;48.33;;;;;;;13.84;100.00;101927.91;1991917;71;32811;-75
2022/07/02 02:05:49;;;;;;;52.30;48.60;;;;;;;14.01;100.00;101927.05;1991846;71;32766;-74
2022/07/02 02:11:34;;;;;;;52.43;48.77;;;;;;;13.74;100.00;101915.34;2004634;71;32811;-74
2022/07/02 02:17:18;;;;;;;51.27;47.43;;;;;;;13.90;100.00;101919.81;2011449;71;32836;-73
2022/07/02 02:23:04;;;;;;;51.90;48.20;;;;;;;13.87;100.00;101911.98;2011348;71;32905;-74
2022/07/02 02:28:48;;;;;;;49.67;45.97;;;;;;;13.59;100.00;101907.83;2009522;71;33433;-74
2022/07/02 02:34:32;;;;;;;50.93;47.30;;;;;;;13.63;100.00;101909.78;2016913;71;33379;-74
2022/07/02 02:40:17;;;;;;;51.03;47.43;;;;;;;13.48;100.00;101908.92;1995092;70;32756;-74
2022/07/02 02:46:02;;;;;;;49.37;45.77;;;;;;;13.51;100.00;101901.41;2015007;71;32885;-75
2022/07/02 02:51:47;;;;;;;50.20;46.37;;;;;;;13.56;100.00;101902.81;2002298;71;33372;-75
2022/07/02 02:57:31;;;;;;;50.47;46.63;;;;;;;13.45;100.00;101893.59;1991540;71;32847;-75
2022/07/02 03:03:15;;;;;;;50.60;46.87;;;;;;;13.45;100.00;101897.77;2003885;71;32896;-74
2022/07/02 03:08:59;;;;;;;53.67;49.73;;;;;;;13.36;100.00;101898.60;2009882;71;32880;-74
2022/07/02 03:14:43;;;;;;;52.73;48.77;;;;;;;13.35;100.00;101901.14;2006287;71;32901;-74
2022/07/02 03:20:28;;;;;;;50.37;46.67;;;;;;;13.26;100.00;101909.77;2015133;71;32974;-75
2022/07/02 03:26:12;;;;;;;49.97;46.47;;;;;;;13.01;100.00;101907.17;2008001;71;32829;-74
2022/07/02 03:31:56;;;;;;;52.40;48.80;;;;;;;13.35;100.00;101901.94;2011028;71;32984;-75
2022/07/02 03:37:41;;;;;;;54.13;50.53;;;;;;;13.32;100.00;101907.25;2015139;71;33426;-70
2022/07/02 03:43:25;;;;;;;51.07;47.17;;;;;;;13.16;100.00;101911.98;1991565;71;32915;-68
2022/07/02 03:49:10;;;;;;;49.73;46.13;;;;;;;13.15;100.00;101899.98;2012132;71;33419;-69
2022/07/02 03:54:54;;;;;;;50.73;46.83;;;;;;;13.18;100.00;101897.19;2017109;71;32867;-68
2022/07/02 04:00:39;;;;;;;51.63;48.03;;;;;;;13.35;100.00;101902.53;1982600;71;39678;-68
2022/07/02 04:06:23;;;;;;;51.83;48.23;;;;;;;13.31;100.00;101906.96;2013321;71;32869;-69
2022/07/02 04:12:09;;;;;;;53.67;50.07;;;;;;;13.34;100.00;101907.27;1997465;71;32881;-69
2022/07/02 04:17:53;;;;;;;51.20;47.60;;;;;;;13.38;100.00;101912.58;2000862;71;32832;-69
2022/07/02 04:23:38;;;;;;;57.00;52.90;;;;;;;13.35;100.00;101913.11;1982282;71;27874;-69
2022/07/02 04:29:22;;;;;;;54.20;50.23;;;;;;;13.43;100.00;101907.55;1991896;71;32748;-69
2022/07/02 04:35:08;;;;;;;52.90;49.33;;;;;;;13.43;100.00;101907.00;2017307;71;32870;-68
2022/07/02 04:40:54;;;;;;;53.77;49.83;;;;;;;13.51;100.00;101912.02;2010037;71;32821;-69
2022/07/02 04:46:38;;;;;;;51.83;47.90;;;;;;;13.54;100.00;101916.20;2015153;71;32967;-68
2022/07/02 04:52:23;;;;;;;51.77;48.17;;;;;;;13.51;100.00;101910.63;2013539;71;32799;-69
2022/07/02 04:58:07;;;;;;;52.47;48.60;;;;;;;13.67;100.00;101915.08;2018574;71;32897;-68
2022/07/02 05:03:51;;;;;;;54.00;50.30;;;;;;;13.71;100.00;101918.14;2011639;71;32887;-68
2022/07/02 05:09:36;;;;;;;54.77;50.70;;;;;;;13.67;100.00;101918.43;2006191;71;32880;-70
2022/07/02 05:15:23;;;;;;;54.47;50.47;;;;;;;13.79;100.00;101911.99;1998669;71;32877;-69
2022/07/02 05:21:08;;;;;;;52.77;48.97;;;;;;;13.95;100.00;101912.80;2009863;71;32948;-68
2022/07/02 05:26:52;;;;;;;51.83;48.30;;;;;;;14.06;100.00;101909.72;2013320;71;33403;-69
2022/07/02 05:32:36;;;;;;;52.50;48.83;;;;;;;14.10;100.00;101903.84;2004693;71;32761;-69
2022/07/02 05:38:21;;;;;;;53.23;49.83;;;;;;;14.24;100.00;101902.70;2007930;71;32826;-68
2022/07/02 05:44:06;;;;;;;52.63;48.87;;;;;;;14.36;100.00;101901.00;2007691;71;33370;-68
2022/07/02 05:49:50;;;;;;;54.00;50.27;;;;;;;14.43;100.00;101902.37;2017111;71;33480;-69
2022/07/02 05:55:35;;;;;;;53.27;49.57;;;;;;;14.61;100.00;101893.06;2006673;71;33352;-68
2022/07/02 06:01:19;;;;;;;53.77;50.23;;;;;;;14.69;100.00;101897.50;2004660;71;32837;-69
2022/07/02 06:13:06;;;;;;;55.37;51.90;;;;;;;14.92;100.00;101895.98;2015279;71;32878;-67
2022/07/02 06:18:50;;;;;;;54.17;50.77;;;;;;;15.11;100.00;101889.12;2001162;71;33282;-67
2022/07/02 06:24:35;;;;;;;55.13;51.40;;;;;;;15.21;100.00;101889.91;2006543;71;32925;-67
2022/07/02 06:30:20;;;;;;;52.00;48.50;;;;;;;15.32;100.00;101887.29;2013358;71;32958;-67
2022/07/02 06:36:04;;;;;;;54.33;51.00;;;;;;;15.58;100.00;101887.11;2013735;71;33363;-67
2022/07/02 06:47:51;;;;;;;53.20;49.60;;;;;;;15.85;100.00;101878.45;2015249;71;33354;-67
2022/07/02 06:53:35;;;;;;;50.67;47.57;;;;;;;16.01;100.00;101879.12;2017150;71;32895;-67
2022/07/02 06:59:22;;;;;;;52.30;49.20;;;;;;;16.24;100.00;101870.46;2013965;71;33308;-65
2022/07/02 07:05:08;;;;;;;50.40;47.50;;;;;;;16.40;100.00;101879.79;2016931;70;32929;-65
2022/07/02 07:10:56;;;;;;;51.33;48.43;;;;;;;16.55;100.00;101868.12;2013569;71;33365;-68
2022/07/02 07:16:40;;;;;;;48.87;46.07;;;;;;;16.86;100.00;101874.98;2004176;71;32892;-69
2022/07/02 07:22:24;;;;;;;47.53;44.73;;;;;;;16.97;100.00;101865.30;2000517;71;30967;-67
2022/07/02 07:28:09;;;;;;;45.23;42.53;;;;;;;17.20;100.00;101855.12;2018908;71;33046;-67
2022/07/02 07:33:54;;;;;;;47.77;45.17;;;;;;;17.29;100.00;101864.50;2015117;71;32835;-68
2022/07/02 07:39:39;;;;;;;46.77;44.17;;;;;;;17.38;100.00;101866.88;2010157;71;32810;-70
2022/07/02 07:45:24;;;;;;;43.93;41.57;;;;;;;17.38;100.00;101861.83;2015211;70;31084;-69
2022/07/02 07:51:09;;;;;;;41.83;39.53;;;;;;;17.46;100.00;101861.97;2016993;71;31440;-68
2022/07/02 07:56:54;;;;;;;42.27;39.77;;;;;;;17.90;100.00;101872.73;2000539;71;30914;-67
2022/07/02 08:02:38;;;;;;;41.00;38.57;;;;;;;18.29;100.00;101861.00;1997335;71;30921;-68
2022/07/02 08:08:24;;;;;;;41.03;38.77;;;;;;;18.16;100.00;101859.86;2004669;71;30868;-68
2022/07/02 08:14:10;;;;;;;39.13;36.93;;;;;;;18.35;100.00;101847.11;2011830;71;32964;-67
2022/07/02 08:19:55;;;;;;;36.17;34.10;;;;;;;18.57;100.00;101844.95;2008391;71;30910;-67
2022/07/02 08:25:40;;;;;;;31.27;29.57;;;;;;;19.26;100.00;101828.69;2006508;71;30836;-69
2022/07/02 08:31:24;;;;;;;29.17;27.50;;;;;;;19.36;100.00;101813.78;2012082;71;30857;-69
2022/07/02 08:37:08;;;;;;;26.83;25.43;;;;;;;19.39;100.00;101824.97;2013837;71;30801;-69
2022/07/02 08:42:54;;;;;;;27.80;25.93;;;;;;;19.48;100.00;101816.87;1977908;72;30994;-69
2022/07/02 08:48:40;;;;;;;25.17;23.87;;;;;;;19.54;100.00;101831.10;2013525;70;30901;-69
2022/07/02 08:54:27;;;;;;;25.00;23.73;;;;;;;19.15;100.00;101837.98;2015563;71;30901;-69
2022/07/02 09:00:15;;;;;;;26.97;25.37;;;;;;;19.59;100.00;101809.00;2017099;71;30870;-69
2022/07/02 09:06:01;;;;;;;25.63;24.43;;;;;;;19.65;100.00;101809.67;2013353;71;31033;-66
2022/07/02 09:11:48;;;;;;;22.90;21.80;;;;;;;19.99;100.00;101814.06;1995620;71;30833;-68
2022/07/02 09:17:34;;;;;;;21.23;20.13;;;;;;;20.12;100.00;101814.54;2006844;71;30942;-68
2022/07/02 09:23:22;;;;;;;17.97;17.07;;;;;;;20.07;100.00;101804.00;2013949;71;31354;-66
2022/07/02 09:29:07;;;;;;;17.40;16.60;;;;;;;20.19;100.00;101795.74;2003093;71;31450;-67
2022/07/02 09:35:02;;;;;;;15.50;14.80;;;;;;;20.43;100.00;101794.75;2002862;71;30837;-69
2022/07/02 09:40:57;;;;;;;15.43;14.57;;;;;;;20.51;100.00;101793.93;2009728;71;30902;-67
2022/07/02 09:46:45;;;;;;;12.97;12.47;;;;;;;20.33;100.00;101792.22;2004880;71;31312;-75
2022/07/02 09:52:31;;;;;;;12.20;11.53;;;;;;;20.49;100.00;101794.86;2012125;71;30922;-67
2022/07/02 09:58:25;;;;;;;12.70;11.87;;;;;;;20.55;100.00;101792.69;2015108;71;30876;-67
2022/07/02 10:04:11;;;;;;;11.63;11.13;;;;;;;20.48;100.00;101791.77;2009611;71;30970;-68
2022/07/02 10:09:58;;;;;;;10.43;10.03;;;;;;;20.45;100.00;101784.78;2016913;71;30871;-67
2022/07/02 10:15:45;;;;;;;10.47;9.87;;;;;;;20.51;100.00;101781.23;2015092;71;30995;-67
2022/07/02 10:21:31;;;;;;;10.60;10.07;;;;;;;20.53;100.00;101787.39;1997618;71;31438;-67
2022/07/02 10:27:18;;;;;;;10.30;9.90;;;;;;;20.66;100.00;101785.58;2002751;71;30837;-67
2022/07/02 10:33:08;;;;;;;10.00;9.47;;;;;;;20.77;100.00;101785.49;2015348;71;30920;-68
2022/07/02 10:39:01;;;;;;;10.23;9.83;;;;;;;20.79;100.00;101786.81;2009941;71;31401;-68
2022/07/02 10:44:47;;;;;;;10.33;9.83;;;;;;;20.80;100.00;101787.64;2013613;71;30920;-67
2022/07/02 10:50:44;;;;;;;9.50;9.10;;;;;;;20.76;100.00;101795.12;2017004;71;30914;-68
2022/07/02 10:56:29;;;;;;;10.50;10.00;;;;;;;20.71;100.00;101786.23;1995599;71;30792;-67
2022/07/02 11:02:17;;;;;;;10.37;9.87;;;;;;;20.79;100.00;101776.92;2015134;71;30940;-66
2022/07/02 11:08:02;;;;;;;10.03;9.43;;;;;;;20.89;100.00;101783.67;1998997;71;30904;-66
2022/07/02 11:13:51;;;;;;;11.00;10.23;;;;;;;20.90;100.00;101783.92;1992049;71;31361;-67
2022/07/02 11:19:38;;;;;;;15.20;11.43;;;;;;;21.02;100.00;101776.77;1999388;71;30853;-68
2022/07/02 11:25:23;;;;;;;11.03;10.13;;;;;;;21.18;100.00;101770.91;2013478;71;30997;-66
2022/07/02 11:31:14;;;;;;;11.17;10.17;;;;;;;21.15;100.00;101763.91;2009597;71;30880;-67
2022/07/02 11:37:01;;;;;;;10.57;9.77;;;;;;;21.28;100.00;101766.30;2018815;71;30967;-68
2022/07/02 11:42:45;;;;;;;18.73;16.87;;;;;;;21.52;100.00;101753.84;1972633;72;30978;-69
2022/07/02 11:48:29;;;;;;;16.17;14.70;;;;;;;21.60;100.00;101753.00;2008046;71;31060;-68
2022/07/02 11:54:15;;;;;;;12.77;11.83;;;;;;;21.40;100.00;101743.81;2012033;71;31354;-69
2022/07/02 12:00:00;;;;;;;9.80;9.20;;;;;;;21.57;100.00;101761.30;1997328;71;31378;-67
2022/07/02 12:05:54;;;;;;;12.50;11.50;;;;;;;21.38;100.00;101746.74;2015287;71;30892;-69
2022/07/02 12:11:41;;;;;;;10.00;9.50;;;;;;;21.51;100.00;101742.89;2015205;71;30888;-68
2022/07/02 12:17:28;;;;;;;9.97;9.47;;;;;;;21.66;100.00;101745.98;2000727;71;30900;-69
2022/07/02 12:23:11;;;;;;;10.27;9.67;;;;;;;21.86;100.00;101744.42;2002876;71;30863;-69
2022/07/02 12:35:10;;;;;;;9.35;8.90;;;;;;;21.96;100.00;101734.73;1995171;71;30870;-69
2022/07/02 12:41:00;;;;;;;9.60;9.10;;;;;;;21.97;100.00;101736.39;2011581;71;31077;-67
2022/07/02 12:46:49;;;;;;;9.80;9.23;;;;;;;21.82;100.00;101727.88;2010396;71;30799;-69
2022/07/02 12:52:45;;;;;;;9.93;9.20;;;;;;;22.04;100.00;101719.70;1997358;71;30837;-69
2022/07/02 12:58:48;;;;;;;9.45;8.98;;;;;;;21.96;100.00;101719.16;2013619;71;30963;-68
2022/07/02 13:04:33;;;;;;;10.17;9.37;;;;;;;21.88;100.00;101720.02;2009862;71;30833;-70
2022/07/02 13:10:17;;;;;;;9.10;8.70;;;;;;;21.93;100.00;101705.13;2016533;71;30937;-68
2022/07/02 13:16:02;;;;;;;15.83;9.58;;;;;;;22.44;100.00;101708.20;1963409;72;30883;-68
2022/07/02 13:21:46;;;;;;;9.63;8.53;;;;;;;22.29;100.00;101703.16;2016992;71;30849;-70
2022/07/02 13:27:30;;;;;;;8.90;8.40;;;;;;;22.24;100.00;101711.85;2010339;71;30850;-73
2022/07/02 13:33:14;;;;;;;8.93;8.30;;;;;;;22.09;100.00;101714.68;2005874;71;30900;-70
2022/07/02 13:38:58;;;;;;;9.58;9.08;;;;;;;22.13;100.00;101705.75;2000531;71;30904;-70
2022/07/02 13:44:41;;;;;;;9.40;9.00;;;;;;;22.50;100.00;101704.00;2008179;71;31006;-72
2022/07/02 13:50:28;;;;;;;9.05;8.58;;;;;;;22.27;100.00;101708.91;2002674;71;31013;-72
2022/07/02 13:56:12;;;;;;;9.03;8.53;;;;;;;22.28;100.00;101698.67;1995574;71;30889;-73
2022/07/02 14:02:00;;;;;;;8.73;8.33;;;;;;;22.78;100.00;101707.11;2004344;71;30888;-73
2022/07/02 14:07:44;;;;;;;8.67;8.37;;;;;;;22.35;100.00;101698.11;1995160;71;31414;-72
2022/07/02 14:13:28;;;;;;;8.60;8.20;;;;;;;22.39;100.00;101704.16;2006554;71;30852;-72
2022/07/02 14:19:13;;;;;;;8.65;8.35;;;;;;;22.44;100.00;101698.29;2005881;70;31045;-73
2022/07/02 14:24:59;;;;;;;8.90;8.43;;;;;;;22.46;100.00;101698.76;2004842;71;30789;-72
2022/07/02 14:30:43;;;;;;;9.00;8.55;;;;;;;22.08;100.00;101693.20;2011750;71;30943;-71
2022/07/02 14:36:27;;;;;;;8.70;8.13;;;;;;;22.49;100.00;101691.01;2004275;71;30925;-71
2022/07/02 14:42:12;;;;;;;8.68;8.38;;;;;;;22.58;100.00;101685.28;2015166;71;30888;-72
2022/07/02 14:47:56;;;;;;;9.05;8.65;;;;;;;22.65;100.00;101684.95;2006041;71;31081;-72
2022/07/02 14:53:40;;;;;;;9.08;8.50;;;;;;;22.24;100.00;101694.28;1992232;71;30949;-73
2022/07/02 14:59:24;;;;;;;8.60;8.30;;;;;;;22.21;100.00;101688.45;2015142;71;30966;-73
2022/07/02 15:05:11;;;;;;;9.13;8.73;;;;;;;21.73;100.00;101701.05;2013999;71;30865;-71
2022/07/02 15:10:56;;;;;;;8.07;7.67;;;;;;;21.82;100.00;101691.11;1999375;71;31264;-73
2022/07/02 15:16:40;;;;;;;8.97;8.57;;;;;;;21.50;100.00;101688.91;2010140;71;30819;-71
2022/07/02 15:22:27;;;;;;;8.33;7.97;;;;;;;21.53;100.00;101696.12;2015373;70;30933;-71
2022/07/02 15:28:17;;;;;;;8.80;8.20;;;;;;;21.76;100.00;101688.22;2009819;71;30911;-70
2022/07/02 15:34:02;;;;;;;8.98;8.53;;;;;;;22.03;100.00;101687.77;2011888;71;30920;-67
2022/07/02 15:39:49;;;;;;;9.43;9.03;;;;;;;22.15;100.00;101674.28;2011673;71;30865;-68
2022/07/02 15:45:35;;;;;;;9.00;8.60;;;;;;;22.18;100.00;101658.02;2015320;70;30854;-68
2022/07/02 15:51:24;;;;;;;9.20;8.80;;;;;;;21.91;100.00;101668.40;2016953;71;31386;-67
2022/07/02 15:57:12;;;;;;;8.87;8.37;;;;;;;21.64;100.00;101663.50;2006607;71;30852;-66
2022/07/02 16:03:00;;;;;;;7.90;7.50;;;;;;;21.70;100.00;101673.43;2015227;71;30966;-68
2022/07/02 16:08:47;;;;;;;9.13;8.53;;;;;;;21.75;100.00;101659.68;2011847;71;30869;-67
2022/07/02 16:14:33;;;;;;;8.80;8.30;;;;;;;21.80;100.00;101664.56;2004766;71;30806;-68
2022/07/02 16:20:17;;;;;;;9.03;8.50;;;;;;;21.62;100.00;101665.82;2010369;71;30903;-72
2022/07/02 16:26:02;;;;;;;10.20;9.20;;;;;;;21.82;100.00;101660.58;2013565;71;30937;-70
2022/07/02 16:31:49;;;;;;;11.33;10.63;;;;;;;21.80;100.00;101654.67;2004040;71;30853;-70
2022/07/02 16:37:39;;;;;;;11.28;10.63;;;;;;;21.69;100.00;101657.63;1991763;71;30875;-69
2022/07/02 16:46:34;;;;;;;14.87;13.88;;;;;;;21.51;100.00;101649.01;2049504;69;30659;-68
2022/07/02 16:49:06;;;;;;;44.38;40.28;;;;;;;21.59;100.00;101645.89;1939170;73;24572;-70
2022/07/02 16:51:39;;;;;;;74.27;67.10;;;;;;;21.45;100.00;101644.70;1934533;73;24173;-68
2022/07/02 16:54:12;;;;;;;15.57;14.57;;;;;;;21.70;100.00;101664.11;1965710;72;24176;-69
2022/07/02 16:56:44;;;;;;;10.58;9.88;;;;;;;21.47;100.00;101650.02;1938916;72;24148;-71
2022/07/02 16:59:15;;;;;;;10.67;10.17;;;;;;;21.55;100.00;101639.25;1967270;72;24136;-70
2022/07/02 17:01:46;;;;;;;10.20;9.60;;;;;;;21.76;100.00;101650.03;1937448;73;24237;-73
2022/07/02 17:04:18;;;;;;;10.98;10.38;;;;;;;21.83;100.00;101640.41;1964658;71;24253;-67
2022/07/02 17:06:50;;;;;;;13.83;12.80;;;;;;;21.86;100.00;101627.60;1896579;75;24248;-68
2022/07/02 17:09:21;;;;;;;11.13;10.53;;;;;;;21.96;100.00;101631.45;1931447;74;24184;-68
2022/07/02 17:11:51;;;;;;;11.13;10.37;;;;;;;21.76;100.00;101643.80;1896536;76;24148;-68
2022/07/02 17:14:22;;;;;;;17.10;15.73;;;;;;;21.77;100.00;101640.39;1931478;74;24131;-68
2022/07/02 17:16:52;;;;;;;10.30;9.35;;;;;;;21.63;100.00;101638.38;1896610;76;24161;-68
2022/07/02 17:19:23;;;;;;;9.57;9.07;;;;;;;21.55;100.00;101642.08;1931449;74;24134;-68
2022/07/02 17:21:53;;;;;;;10.10;9.60;;;;;;;21.42;100.00;101636.08;1931475;74;24121;-68
2022/07/02 17:24:24;;;;;;;10.17;9.77;;;;;;;21.31;100.00;101632.20;1931427;74;24148;-68
2022/07/02 17:26:55;;;;;;;11.63;11.03;;;;;;;21.33;100.00;101642.59;1931350;74;24195;-68
2022/07/02 17:29:25;;;;;;;11.10;10.60;;;;;;;21.44;100.00;101644.45;1896517;76;24146;-68
2022/07/02 17:31:57;;;;;;;10.87;10.17;;;;;;;21.41;100.00;101639.48;1896544;76;24175;-69
2022/07/02 17:34:28;;;;;;;10.90;10.33;;;;;;;21.30;100.00;101643.28;1925917;74;24601;-69
2022/07/02 17:37:00;;;;;;;10.90;10.30;;;;;;;21.25;100.00;101645.45;1937927;74;24130;-69
2022/07/02 17:39:30;;;;;;;10.87;10.20;;;;;;;21.03;100.00;101659.20;1931413;74;24564;-70
2022/07/02 17:42:00;;;;;;;12.70;11.93;;;;;;;21.02;100.00;101647.64;1929718;73;24166;-69
2022/07/02 17:44:31;;;;;;;11.30;10.60;;;;;;;21.25;100.00;101643.46;1929451;74;24631;-69
2022/07/02 17:47:01;;;;;;;9.90;9.50;;;;;;;21.20;100.00;101644.22;1929498;74;26234;-70
2022/07/02 17:49:32;;;;;;;10.57;10.00;;;;;;;21.29;100.00;101647.84;1894602;76;26638;-68
2022/07/02 17:52:02;;;;;;;10.23;9.70;;;;;;;21.28;100.00;101649.01;1924317;74;24240;-68
2022/07/02 17:54:33;;;;;;;10.33;9.77;;;;;;;21.19;100.00;101651.86;1936291;74;24130;-68
2022/07/02 17:57:03;;;;;;;12.33;11.53;;;;;;;21.17;100.00;101657.63;1928932;74;24163;-69
2022/07/02 17:59:35;;;;;;;10.27;9.77;;;;;;;21.12;100.00;101660.04;1928853;74;24155;-69
2022/07/02 18:02:06;;;;;;;10.03;9.53;;;;;;;21.15;100.00;101658.52;1894015;76;26694;-69
2022/07/02 18:04:36;;;;;;;10.80;10.03;;;;;;;21.04;100.00;101660.03;1923718;73;24605;-69
2022/07/02 18:07:06;;;;;;;11.50;10.90;;;;;;;20.93;100.00;101653.06;1935626;74;24118;-71
2022/07/02 18:09:38;;;;;;;10.87;10.17;;;;;;;20.86;100.00;101650.19;1928821;74;24148;-70
2022/07/02 18:12:11;;;;;;;11.00;10.50;;;;;;;20.65;100.00;101649.22;1928858;74;24632;-71
2022/07/02 18:14:41;;;;;;;12.63;11.83;;;;;;;20.63;100.00;101640.24;1893983;76;26701;-71
2022/07/02 18:17:11;;;;;;;10.53;10.00;;;;;;;20.79;100.00;101644.80;1923638;74;24197;-70
2022/07/02 18:19:43;;;;;;;11.57;10.97;;;;;;;20.51;100.00;101645.73;1935629;74;24126;-68
2022/07/02 18:22:13;;;;;;;11.00;10.30;;;;;;;20.52;100.00;101644.58;1928963;74;24146;-68
2022/07/02 18:24:45;;;;;;;11.40;10.80;;;;;;;20.56;100.00;101645.58;1928915;74;24211;-68
2022/07/02 18:27:16;;;;;;;10.93;10.43;;;;;;;20.63;100.00;101637.42;1893907;76;26694;-68
2022/07/02 18:29:47;;;;;;;11.10;10.53;;;;;;;20.69;100.00;101640.91;1923788;74;24212;-68
2022/07/02 18:32:18;;;;;;;11.57;10.97;;;;;;;20.70;100.00;101647.64;1928845;74;24194;-67
2022/07/02 18:34:48;;;;;;;11.10;10.50;;;;;;;20.58;100.00;101650.90;1893867;76;24230;-67
2022/07/02 18:37:18;;;;;;;12.00;11.37;;;;;;;20.60;100.00;101649.39;1923795;74;24146;-66
2022/07/02 18:39:49;;;;;;;12.13;11.43;;;;;;;20.48;100.00;101655.45;1928816;74;24244;-68
2022/07/02 18:42:19;;;;;;;12.90;12.20;;;;;;;20.34;100.00;101657.03;1893909;74;24194;-67
2022/07/02 18:44:50;;;;;;;12.60;11.80;;;;;;;20.37;100.00;101655.78;1928792;74;24271;-68
2022/07/02 18:47:21;;;;;;;12.83;12.10;;;;;;;20.26;100.00;101652.19;1893913;76;24306;-69
2022/07/02 18:49:52;;;;;;;14.60;13.80;;;;;;;20.19;100.00;101649.03;1923661;74;24217;-67
2022/07/02 18:52:22;;;;;;;14.43;13.53;;;;;;;20.08;100.00;101651.91;1935610;74;24130;-67
2022/07/02 18:54:53;;;;;;;14.83;14.03;;;;;;;20.00;100.00;101657.22;1928827;74;24148;-68
2022/07/02 18:57:24;;;;;;;13.87;13.27;;;;;;;19.97;100.00;101654.23;1928921;74;24175;-68
2022/07/02 18:59:56;;;;;;;15.10;14.23;;;;;;;20.07;100.00;101662.36;1893900;76;24173;-68
2022/07/02 19:02:27;;;;;;;15.40;14.40;;;;;;;20.03;100.00;101658.53;1928832;74;24159;-67
2022/07/02 19:04:57;;;;;;;16.13;15.13;;;;;;;20.05;100.00;101663.86;1893920;76;24216;-67
2022/07/02 19:10:43;;;;;;;22.87;21.57;;;;;;;20.03;100.00;101675.46;2009588;71;30928;-67
2022/07/02 19:16:29;;;;;;;32.40;30.70;;;;;;;19.68;100.00;101685.01;2017126;71;30919;-67
2022/07/02 19:22:14;;;;;;;37.43;35.33;;;;;;;19.25;100.00;101704.51;2013478;71;33356;-66
2022/07/02 19:34:00;;;;;;;42.30;40.00;;;;;;;18.57;100.00;101719.73;2013580;71;30977;-67
2022/07/02 19:39:44;;;;;;;50.87;47.77;;;;;;;18.12;100.00;101735.09;2015259;71;30939;-65
2022/07/02 19:45:30;;;;;;;54.30;51.00;;;;;;;17.81;100.00;101740.25;2001104;71;32839;-67
2022/07/02 19:51:17;;;;;;;53.93;50.73;;;;;;;17.58;100.00;101749.99;2015056;71;30982;-66
2022/07/02 19:57:03;;;;;;;55.47;52.17;;;;;;;17.40;100.00;101755.07;2015212;71;33468;-67
2022/07/02 20:02:50;;;;;;;52.43;49.33;;;;;;;17.41;100.00;101765.17;1997298;71;30887;-67
2022/07/02 20:08:34;;;;;;;53.97;50.87;;;;;;;17.39;100.00;101765.20;1999488;71;33326;-67
2022/07/02 20:14:20;;;;;;;54.00;50.80;;;;;;;17.20;100.00;101770.89;2015298;71;31483;-67
2022/07/02 20:20:06;;;;;;;52.17;49.07;;;;;;;17.15;100.00;101766.20;2010167;71;33443;-67
2022/07/02 20:25:51;;;;;;;50.77;47.73;;;;;;;17.33;100.00;101765.86;2014134;71;33391;-66
2022/07/02 20:31:35;;;;;;;52.77;49.77;;;;;;;17.19;100.00;101772.03;1991919;71;30822;-66
2022/07/02 20:37:20;;;;;;;51.87;48.73;;;;;;;17.20;100.00;101766.69;2011590;71;31508;-66
2022/07/02 20:43:08;;;;;;;51.40;48.27;;;;;;;17.20;100.00;101779.31;1999122;71;30842;-67
2022/07/02 20:48:55;;;;;;;51.93;48.83;;;;;;;17.16;100.00;101776.83;2001154;71;33310;-67
2022/07/02 20:54:40;;;;;;;52.07;48.87;;;;;;;17.23;100.00;101774.48;2013454;71;33397;-67
2022/07/02 21:00:25;;;;;;;54.07;50.87;;;;;;;17.32;100.00;101780.23;2006580;71;30835;-67
2022/07/02 21:06:09;;;;;;;51.27;48.27;;;;;;;17.32;100.00;101786.69;2017215;71;30902;-67
2022/07/02 21:11:55;;;;;;;53.87;50.77;;;;;;;17.28;100.00;101789.24;2017382;71;31354;-67
2022/07/02 21:17:40;;;;;;;54.10;50.90;;;;;;;17.25;100.00;101795.48;2010103;71;32835;-65
2022/07/02 21:23:28;;;;;;;52.77;49.50;;;;;;;17.13;100.00;101804.13;2009836;71;30922;-67
2022/07/02 21:29:13;;;;;;;54.27;50.97;;;;;;;17.01;100.00;101797.59;2006471;71;30883;-67
2022/07/02 21:34:58;;;;;;;54.73;51.43;;;;;;;16.99;100.00;101801.25;2002972;71;31411;-67
2022/07/02 21:40:44;;;;;;;55.20;52.00;;;;;;;17.00;100.00;101795.91;2015523;70;30980;-67
2022/07/02 21:46:28;;;;;;;52.83;49.63;;;;;;;16.79;100.00;101804.39;2013186;71;32859;-67
2022/07/02 21:52:13;;;;;;;58.10;54.40;;;;;;;16.88;100.00;101803.97;1997440;71;30908;-67
2022/07/02 21:57:57;;;;;;;74.20;68.60;;;;;;;16.91;100.00;101792.13;2015197;71;30893;-67
2022/07/02 22:03:44;;;;;;;65.33;60.80;;;;;;;16.89;100.00;101797.23;2015510;71;31429;-67
2022/07/02 22:09:28;;;;;;;53.20;49.90;;;;;;;16.80;100.00;101797.64;2000576;71;30906;-67
2022/07/02 22:15:13;;;;;;;50.73;47.73;;;;;;;16.80;100.00;101805.50;2002999;71;32895;-67
2022/07/02 22:20:58;;;;;;;49.67;46.87;;;;;;;16.77;100.00;101787.03;2003056;71;33287;-67
2022/07/02 22:26:43;;;;;;;51.30;48.30;;;;;;;16.61;100.00;101796.80;2009952;71;33442;-67
2022/07/02 22:32:29;;;;;;;50.23;47.47;;;;;;;16.72;100.00;101809.55;2010406;71;32850;-67
2022/07/02 22:38:14;;;;;;;46.90;44.20;;;;;;;16.73;100.00;101803.63;2006604;71;32918;-67
2022/07/02 22:43:59;;;;;;;46.33;43.80;;;;;;;16.57;100.00;101816.73;2006156;71;33369;-67
2022/07/02 22:49:45;;;;;;;45.70;43.20;;;;;;;16.46;100.00;101813.82;1995502;71;32828;-67
2022/07/02 22:55:30;;;;;;;47.20;44.60;;;;;;;16.42;100.00;101809.39;2001164;71;33341;-67
2022/07/02 23:01:15;;;;;;;47.17;44.57;;;;;;;16.23;100.00;101813.55;2013978;71;33274;-67
2022/07/02 23:07:01;;;;;;;48.57;45.97;;;;;;;16.21;100.00;101822.84;2015350;71;32946;-67
2022/07/02 23:12:46;;;;;;;48.87;46.27;;;;;;;16.22;100.00;101821.69;2013410;71;33387;-67
2022/07/02 23:18:31;;;;;;;47.60;45.00;;;;;;;16.25;100.00;101818.87;2000401;71;32831;-68
2022/07/02 23:24:17;;;;;;;50.47;47.77;;;;;;;16.24;100.00;101812.42;2016896;71;32842;-67
2022/07/02 23:30:02;;;;;;;58.67;55.37;;;;;;;16.21;100.00;101808.83;2009769;71;32817;-67
2022/07/02 23:35:47;;;;;;;58.77;55.07;;;;;;;16.15;100.00;101822.63;2006502;71;32811;-67